Time;durP1;ratioP1;P1;durP2;ratioP2;P2;SDS_P1;SDS_P2;PMS_P1;PMS_P2;Temp;Humidity;BMP_temperature;BMP_pressure;BME280_temperature;BME280_humidity;BME280_pressure;Samples;Min_cycle;Max_cycle;Signal;HPM_P1;HPM_P2
2023/06/14 00:00:34;;;;;;;8.38;6.78;;;;;;;20.93;84.68;99023.91;5011461;28;20033;-75
2023/06/14 00:03:00;;;;;;;8.10;7.18;;;;;;;20.89;84.99;99026.75;5008506;28;20029;-75
2023/06/14 00:05:26;;;;;;;9.10;6.78;;;;;;;20.92;85.02;99031.59;5009843;28;20025;-75
2023/06/14 00:07:53;;;;;;;7.43;6.70;;;;;;;20.96;84.64;99021.03;5010833;28;20022;-75
2023/06/14 00:10:19;;;;;;;7.45;5.97;;;;;;;20.95;84.64;99015.75;5010078;28;20084;-75
2023/06/14 00:12:44;;;;;;;9.80;6.88;;;;;;;20.88;85.22;99014.59;5008331;28;20124;-75
2023/06/14 00:15:10;;;;;;;9.02;6.50;;;;;;;20.75;86.06;99011.38;5009703;28;20489;-75
2023/06/14 00:17:36;;;;;;;9.25;6.78;;;;;;;20.71;86.75;99024.00;5011241;28;20029;-75
2023/06/14 00:20:05;;;;;;;8.48;7.35;;;;;;;20.62;87.20;99015.94;5009960;28;20025;-75
2023/06/14 00:22:31;;;;;;;8.80;7.60;;;;;;;20.54;88.18;99012.34;5006465;28;20030;-75
2023/06/14 00:24:57;;;;;;;11.85;7.57;;;;;;;20.52;88.28;99014.78;5009170;28;20030;-75
2023/06/14 00:27:22;;;;;;;8.38;7.57;;;;;;;20.43;89.53;99020.09;5008845;28;20040;-75
2023/06/14 00:29:47;;;;;;;11.85;8.48;;;;;;;20.48;89.29;99008.31;5011072;28;20509;-75
2023/06/14 00:32:13;;;;;;;8.00;7.20;;;;;;;20.59;88.52;99011.88;5009109;28;20555;-75
2023/06/14 00:34:39;;;;;;;9.68;8.45;;;;;;;20.72;87.71;99015.06;5011083;28;20037;-75
2023/06/14 00:37:04;;;;;;;8.32;6.75;;;;;;;20.73;87.50;99013.03;5010774;28;20033;-75
2023/06/14 00:39:30;;;;;;;9.98;7.45;;;;;;;20.80;87.28;99018.66;5009808;28;20061;-75
2023/06/14 00:41:55;;;;;;;11.25;8.43;;;;;;;20.77;86.84;99016.66;5008099;28;20030;-75
2023/06/14 00:44:21;;;;;;;9.45;7.70;;;;;;;20.68;87.60;99008.59;5008149;28;20029;-75
2023/06/14 00:46:47;;;;;;;14.40;7.72;;;;;;;20.76;86.95;99004.47;5011005;28;20025;-75
2023/06/14 00:49:15;;;;;;;10.45;8.15;;;;;;;20.75;87.39;98997.19;5011076;28;20101;-75
2023/06/14 00:51:43;;;;;;;9.75;8.75;;;;;;;20.70;87.82;99000.47;5009951;28;20408;-75
2023/06/14 00:54:09;;;;;;;9.35;8.30;;;;;;;20.66;87.59;98999.69;5009806;28;20543;-75
2023/06/14 00:56:39;;;;;;;11.35;8.43;;;;;;;20.71;88.01;99002.09;5008731;28;20029;-75
2023/06/14 00:59:05;;;;;;;9.75;7.72;;;;;;;20.78;87.07;98998.38;5010932;28;20084;-75
2023/06/14 01:01:34;;;;;;;11.13;7.85;;;;;;;20.66;88.07;98998.88;5008623;28;20046;-75
2023/06/14 01:04:01;;;;;;;8.85;7.95;;;;;;;20.75;88.16;99005.72;5011038;28;20025;-75
2023/06/14 01:06:51;;;;;;;9.63;7.45;;;;;;;20.61;88.52;99002.97;5011847;28;20064;-75
2023/06/14 01:09:22;;;;;;;10.80;7.80;;;;;;;20.62;88.90;99008.22;5012350;28;20022;-75
2023/06/14 01:12:04;;;;;;;10.75;8.70;;;;;;;20.36;91.60;99003.91;5011345;28;20052;-75
2023/06/14 01:14:33;;;;;;;8.63;7.82;;;;;;;20.49;90.84;98998.56;5014363;28;20507;-75
2023/06/14 01:17:00;;;;;;;10.57;8.55;;;;;;;20.61;89.75;98998.06;5013025;28;20030;-75
2023/06/14 01:19:28;;;;;;;10.88;8.13;;;;;;;20.74;88.76;99006.13;5013415;28;20049;-75
2023/06/14 01:21:55;;;;;;;9.73;8.45;;;;;;;20.78;88.41;98995.56;5013084;28;20022;-75
2023/06/14 01:24:25;;;;;;;8.73;7.85;;;;;;;20.67;88.69;98994.81;5014126;28;20033;-75
2023/06/14 01:26:55;;;;;;;;;;;;;;;20.77;87.78;98999.63;5014554;28;20026;-75
2023/06/14 01:29:21;;;;;;;;;;;;;;;20.74;88.11;98994.75;5014646;28;19959;-75
2023/06/14 01:31:48;;;;;;;10.80;9.00;;;;;;;20.65;88.88;99003.75;5011696;28;19960;-75
2023/06/14 01:34:14;;;;;;;9.88;8.85;;;;;;;20.73;88.75;99002.47;5011167;28;20040;-75
2023/06/14 01:36:43;;;;;;;9.70;7.70;;;;;;;20.66;88.57;98998.88;5012968;28;20026;-75
2023/06/14 01:39:13;;;;;;;11.55;9.38;;;;;;;20.70;88.99;98988.28;5013693;28;20049;-75
2023/06/14 01:41:40;;;;;;;10.60;8.35;;;;;;;20.75;88.45;98996.34;5010561;28;20083;-75
2023/06/14 01:44:06;;;;;;;10.60;8.50;;;;;;;20.79;87.97;98988.63;5013965;28;20040;-75
2023/06/14 01:46:32;;;;;;;8.40;7.50;;;;;;;20.63;88.93;98989.16;5013634;28;20041;-75
2023/06/14 01:48:57;;;;;;;12.00;9.07;;;;;;;20.60;89.22;98990.00;5011378;28;20022;-75
2023/06/14 01:51:23;;;;;;;11.30;9.77;;;;;;;20.57;89.80;98988.78;5012615;28;20021;-75
2023/06/14 01:53:48;;;;;;;11.88;8.45;;;;;;;20.37;91.13;98999.03;5013568;28;20606;-75
2023/06/14 01:56:14;;;;;;;13.15;9.98;;;;;;;20.50;90.72;98997.31;5012221;28;20030;-75
2023/06/14 01:58:40;;;;;;;10.68;9.55;;;;;;;20.41;91.10;98997.00;5011974;28;20026;-75
2023/06/14 02:01:06;;;;;;;10.80;9.70;;;;;;;20.26;92.09;99001.94;5012705;28;20030;-75
2023/06/14 02:03:32;;;;;;;13.73;9.88;;;;;;;20.25;92.45;98995.44;5012463;28;20108;-75
2023/06/14 02:05:58;;;;;;;16.33;10.52;;;;;;;20.34;91.58;99001.47;5012330;28;20108;-75
2023/06/14 02:08:23;;;;;;;10.90;9.80;;;;;;;20.16;92.19;98990.19;5012022;28;20026;-74
2023/06/14 02:10:49;;;;;;;15.90;10.77;;;;;;;20.13;92.76;99002.38;5013240;28;20030;-75
2023/06/14 02:13:14;;;;;;;12.07;10.77;;;;;;;20.09;93.68;99001.59;5009096;28;20026;-75
2023/06/14 02:15:43;;;;;;;14.75;10.75;;;;;;;19.72;95.59;99000.88;5011881;28;20030;-74
2023/06/14 02:18:09;;;;;;;20.58;11.77;;;;;;;19.32;99.39;99006.59;5011511;28;20112;-75
2023/06/14 02:20:35;;;;;;;12.38;10.93;;;;;;;19.15;100.00;98996.88;5011899;28;20025;-75
2023/06/14 02:23:01;;;;;;;12.40;11.13;;;;;;;19.02;100.00;98996.50;5011013;28;20034;-74
2023/06/14 02:25:29;;;;;;;20.60;12.25;;;;;;;18.87;100.00;98995.66;5012929;28;20412;-74
2023/06/14 02:27:55;;;;;;;14.52;12.50;;;;;;;18.90;100.00;98996.88;5012956;28;20021;-74
2023/06/14 02:30:21;;;;;;;17.35;12.35;;;;;;;18.96;100.00;98995.22;5012067;28;20393;-74
2023/06/14 02:32:48;;;;;;;14.98;11.77;;;;;;;18.85;100.00;98998.06;5009859;28;20484;-74
2023/06/14 02:35:14;;;;;;;20.02;11.18;;;;;;;19.13;100.00;98990.81;5012796;28;20030;-74
2023/06/14 02:37:39;;;;;;;14.52;10.77;;;;;;;19.02;100.00;98999.34;5011091;28;20041;-74
2023/06/14 02:40:06;;;;;;;18.67;11.40;;;;;;;19.05;100.00;99006.19;5010891;28;20101;-75
2023/06/14 02:42:31;;;;;;;24.83;11.80;;;;;;;19.13;100.00;99012.69;5009939;28;20030;-75
2023/06/14 02:44:57;;;;;;;18.30;11.73;;;;;;;19.17;100.00;99005.78;5011310;28;20032;-74
2023/06/14 02:47:22;;;;;;;21.35;12.15;;;;;;;19.25;100.00;99002.97;5011771;28;20057;-75
2023/06/14 02:49:48;;;;;;;22.30;11.18;;;;;;;19.25;100.00;99012.28;5012544;28;20026;-75
2023/06/14 02:52:13;;;;;;;21.98;13.00;;;;;;;18.72;100.00;99014.63;5011463;28;20096;-74
2023/06/14 02:54:40;;;;;;;17.23;11.20;;;;;;;18.78;100.00;99018.72;5009745;28;20064;-74
2023/06/14 02:57:07;;;;;;;15.38;11.52;;;;;;;18.66;100.00;99025.56;5010942;28;20076;-75
2023/06/14 02:59:33;;;;;;;16.95;12.15;;;;;;;18.68;100.00;99030.81;5009955;28;20040;-74
2023/06/14 03:01:59;;;;;;;18.33;12.27;;;;;;;18.91;100.00;99019.09;5009950;28;20088;-75
2023/06/14 03:04:25;;;;;;;12.82;11.00;;;;;;;18.95;100.00;99024.78;5012304;28;20034;-74
2023/06/14 03:06:53;;;;;;;20.20;11.43;;;;;;;18.40;100.00;99028.72;5012208;28;20036;-74
2023/06/14 03:09:20;;;;;;;17.35;12.30;;;;;;;18.22;100.00;99027.44;5010282;28;20096;-74
2023/06/14 03:11:45;;;;;;;17.13;12.88;;;;;;;18.38;100.00;99038.41;5009840;28;20022;-74
2023/06/14 03:14:13;;;;;;;15.13;12.77;;;;;;;18.55;100.00;99040.91;5012210;28;20026;-75
2023/06/14 03:16:38;;;;;;;14.88;11.50;;;;;;;18.82;100.00;99035.69;5011486;28;20112;-74
2023/06/14 03:19:04;;;;;;;15.25;10.80;;;;;;;18.95;100.00;99044.63;5011911;28;20520;-75
2023/06/14 03:21:29;;;;;;;12.35;10.05;;;;;;;19.19;100.00;99033.75;5012064;28;20400;-75
2023/06/14 03:23:55;;;;;;;12.90;9.27;;;;;;;19.34;99.48;99037.41;4994109;28;20026;-75
2023/06/14 03:26:22;;;;;;;11.45;9.50;;;;;;;19.43;98.55;99034.97;5003562;28;20030;-74
2023/06/14 03:28:50;;;;;;;15.15;9.82;;;;;;;19.54;97.59;99051.97;4998411;28;20025;-74
2023/06/14 03:31:16;;;;;;;13.68;9.00;;;;;;;19.62;96.72;99039.41;5009887;28;20034;-73
2023/06/14 03:33:41;;;;;;;12.13;9.07;;;;;;;19.84;95.43;99044.22;5010795;28;20025;-74
2023/06/14 03:36:07;;;;;;;13.55;9.75;;;;;;;19.90;94.26;99053.91;5010451;28;20025;-73
2023/06/14 03:38:33;;;;;;;12.68;9.38;;;;;;;19.95;93.53;99053.53;5010072;28;20065;-74
2023/06/14 03:40:58;;;;;;;11.25;8.80;;;;;;;20.06;92.75;99059.19;5011789;28;20026;-75
2023/06/14 03:43:24;;;;;;;9.52;8.23;;;;;;;19.92;91.27;99060.84;5007952;28;20120;-72
2023/06/14 03:45:50;;;;;;;12.15;8.23;;;;;;;19.96;91.41;99060.00;5010680;28;20036;-73
2023/06/14 03:48:16;;;;;;;8.70;7.88;;;;;;;20.09;91.06;99054.72;5010508;28;20022;-72
2023/06/14 03:50:42;;;;;;;14.52;10.43;;;;;;;19.83;93.37;99063.25;5011571;28;20160;-74
2023/06/14 03:53:08;;;;;;;16.35;10.10;;;;;;;19.92;93.16;99062.84;5006064;28;20100;-75
2023/06/14 03:55:34;;;;;;;14.65;10.10;;;;;;;20.00;93.12;99069.34;5011530;28;20198;-75
2023/06/14 03:58:00;;;;;;;21.02;11.48;;;;;;;19.94;93.20;99051.94;5003711;28;20030;-75
2023/06/14 04:00:26;;;;;;;16.80;10.35;;;;;;;20.01;93.14;99060.41;5010354;28;20026;-74
2023/06/14 04:02:52;;;;;;;12.15;10.10;;;;;;;19.92;93.44;99065.69;5004173;28;20021;-76
2023/06/14 04:05:19;;;;;;;13.98;10.30;;;;;;;19.99;93.28;99076.25;5006741;28;20504;-74
2023/06/14 04:07:45;;;;;;;12.15;9.57;;;;;;;20.11;92.67;99072.16;5008730;28;20841;-74
2023/06/14 04:10:12;;;;;;;15.98;9.38;;;;;;;19.81;92.90;99077.03;5006987;28;20521;-75
2023/06/14 04:12:38;;;;;;;12.60;8.55;;;;;;;19.87;92.99;99074.59;5005987;28;20033;-76
2023/06/14 04:15:06;;;;;;;11.10;9.10;;;;;;;20.14;91.80;99074.16;5006477;28;20103;-76
2023/06/14 04:17:32;;;;;;;17.20;10.73;;;;;;;20.22;91.67;99074.97;5003380;28;20517;-76
2023/06/14 04:19:59;;;;;;;14.68;10.55;;;;;;;20.32;91.02;99080.59;5003094;28;20053;-76
2023/06/14 04:22:28;;;;;;;22.60;9.77;;;;;;;20.45;90.25;99085.81;5006791;28;20492;-73
2023/06/14 04:24:56;;;;;;;11.93;10.65;;;;;;;20.49;89.16;99066.72;5004832;28;20105;-75
2023/06/14 04:27:27;;;;;;;14.02;10.13;;;;;;;20.55;88.60;99079.28;5007276;28;20029;-75
2023/06/14 04:29:56;;;;;;;17.00;10.48;;;;;;;20.30;90.67;99063.16;4999083;28;20053;-75
2023/06/14 04:32:38;;;;;;;16.27;12.07;;;;;;;20.56;90.21;99077.25;5002976;28;20120;-75
2023/06/14 04:35:07;;;;;;;12.00;10.20;;;;;;;20.37;91.03;99076.53;5011084;28;20897;-75
2023/06/14 04:37:33;;;;;;;15.05;11.30;;;;;;;20.59;90.11;99073.59;5009381;28;20068;-75
2023/06/14 04:39:58;;;;;;;11.48;10.38;;;;;;;20.59;89.82;99068.72;5007911;28;20026;-75
2023/06/14 04:42:31;;;;;;;14.15;10.50;;;;;;;20.68;89.32;99082.44;5010672;28;20033;-75
2023/06/14 04:44:57;;;;;;;17.55;11.20;;;;;;;20.62;90.22;99084.91;5011966;28;20524;-75
2023/06/14 04:47:24;;;;;;;13.40;11.80;;;;;;;20.59;89.79;99088.59;5010128;28;20115;-75
2023/06/14 04:49:52;;;;;;;17.75;11.85;;;;;;;20.73;89.18;99079.19;5004059;28;23570;-75
2023/06/14 04:52:20;;;;;;;14.82;11.05;;;;;;;20.75;88.58;99081.59;5002699;28;20472;-71
2023/06/14 04:54:46;;;;;;;13.60;10.27;;;;;;;20.48;90.47;99087.81;5011041;28;20116;-71
2023/06/14 04:57:13;;;;;;;12.15;10.85;;;;;;;20.20;91.75;99100.91;5005528;28;20037;-71
2023/06/14 04:59:39;;;;;;;20.75;11.02;;;;;;;20.30;90.82;99091.56;5007662;28;21003;-71
2023/06/14 05:02:06;;;;;;;15.50;11.48;;;;;;;20.41;90.44;99091.50;5013102;28;20527;-71
2023/06/14 05:04:32;;;;;;;12.15;10.77;;;;;;;20.54;89.15;99091.88;5007167;28;20030;-71
2023/06/14 05:06:58;;;;;;;11.68;10.48;;;;;;;20.66;88.38;99096.28;5006375;28;20579;-74
2023/06/14 05:09:24;;;;;;;15.60;12.02;;;;;;;20.68;88.50;99099.50;5012682;28;20026;-74
2023/06/14 05:11:50;;;;;;;23.15;13.05;;;;;;;20.77;88.01;99097.03;5005999;28;20232;-73
2023/06/14 05:14:16;;;;;;;14.75;11.57;;;;;;;20.81;87.70;99107.56;5008195;28;20404;-74
2023/06/14 05:16:41;;;;;;;18.95;12.93;;;;;;;21.03;86.85;99099.75;5012039;28;20026;-73
2023/06/14 05:19:07;;;;;;;18.70;12.40;;;;;;;21.19;86.05;99104.94;5003490;28;20091;-75
2023/06/14 05:21:34;;;;;;;21.20;12.43;;;;;;;20.98;85.88;99108.72;5005553;28;20084;-74
2023/06/14 05:24:00;;;;;;;18.38;12.40;;;;;;;20.59;88.41;99113.38;5014100;28;20421;-74
2023/06/14 05:26:28;;;;;;;18.13;12.82;;;;;;;20.77;88.26;99113.28;5012684;28;20106;-73
2023/06/14 05:28:57;;;;;;;16.20;12.27;;;;;;;20.70;88.71;99113.31;5011655;28;20496;-73
2023/06/14 05:31:25;;;;;;;17.75;13.85;;;;;;;20.61;89.27;99122.28;5010461;28;20710;-73
2023/06/14 05:33:52;;;;;;;18.42;13.40;;;;;;;20.84;88.64;99123.84;5011788;28;20037;-74
2023/06/14 05:36:18;;;;;;;15.40;12.90;;;;;;;21.11;86.65;99121.22;5011990;28;20033;-76
2023/06/14 05:38:43;;;;;;;16.02;13.50;;;;;;;20.97;87.54;99127.00;5010407;28;20045;-73
2023/06/14 05:41:08;;;;;;;15.70;14.02;;;;;;;20.62;88.91;99124.69;5010146;28;20508;-74
2023/06/14 05:43:34;;;;;;;20.50;14.30;;;;;;;20.95;87.22;99133.13;5008233;28;20033;-71
2023/06/14 05:45:59;;;;;;;18.60;12.55;;;;;;;20.79;87.55;99133.56;5007937;28;20088;-70
2023/06/14 05:48:25;;;;;;;18.27;13.55;;;;;;;20.78;88.86;99126.28;5009581;28;20121;-72
2023/06/14 05:50:50;;;;;;;15.35;13.75;;;;;;;21.10;87.48;99138.72;5011963;28;20489;-72
2023/06/14 05:53:16;;;;;;;22.55;14.20;;;;;;;21.43;86.75;99137.25;5009963;28;20034;-76
2023/06/14 05:55:41;;;;;;;21.75;13.13;;;;;;;21.34;85.09;99134.06;5007763;28;20040;-73
2023/06/14 05:58:07;;;;;;;17.25;13.85;;;;;;;21.21;85.52;99132.94;5006141;28;20037;-74
2023/06/14 06:00:33;;;;;;;24.00;16.00;;;;;;;20.95;86.02;99135.97;5010082;28;20026;-75
2023/06/14 06:02:59;;;;;;;18.20;15.30;;;;;;;20.67;87.61;99139.72;5009942;28;20800;-75
2023/06/14 06:05:25;;;;;;;17.17;13.88;;;;;;;20.75;87.83;99147.78;5003343;28;20041;-73
2023/06/14 06:07:51;;;;;;;18.13;14.45;;;;;;;20.80;87.76;99137.19;5012013;28;20032;-73
2023/06/14 06:10:17;;;;;;;19.88;14.35;;;;;;;20.77;87.89;99144.53;5011422;28;20033;-72
2023/06/14 06:12:42;;;;;;;22.02;14.43;;;;;;;20.27;91.08;99143.50;5008313;28;20420;-73
2023/06/14 06:15:11;;;;;;;16.88;14.98;;;;;;;20.53;90.25;99140.56;5005037;28;20053;-72
2023/06/14 06:17:37;;;;;;;18.30;14.30;;;;;;;20.82;89.05;99135.59;5004979;28;20026;-73
2023/06/14 06:20:05;;;;;;;16.88;14.13;;;;;;;20.99;87.53;99144.44;5004592;28;20036;-77
2023/06/14 06:22:31;;;;;;;17.35;13.68;;;;;;;21.29;85.44;99138.16;5009808;28;20030;-73
2023/06/14 06:24:56;;;;;;;19.05;13.80;;;;;;;21.48;85.32;99135.19;5010389;28;20032;-73
2023/06/14 06:27:21;;;;;;;21.40;14.60;;;;;;;21.86;83.96;99147.50;5008635;28;20410;-72
2023/06/14 06:29:48;;;;;;;14.57;12.48;;;;;;;21.48;83.85;99143.72;5011716;28;20022;-73
2023/06/14 06:32:14;;;;;;;60.30;17.20;;;;;;;21.57;83.79;99144.06;5006888;28;20033;-73
2023/06/14 06:34:40;;;;;;;19.33;14.43;;;;;;;21.71;82.71;99141.13;5008527;28;20084;-73
2023/06/14 06:37:06;;;;;;;18.60;14.40;;;;;;;21.94;81.55;99147.47;5010877;28;20485;-73
2023/06/14 06:39:31;;;;;;;17.90;13.48;;;;;;;21.78;80.40;99142.31;5012589;28;20076;-73
2023/06/14 06:41:57;;;;;;;20.38;13.70;;;;;;;21.43;83.04;99145.00;5010429;28;20058;-73
2023/06/14 06:44:22;;;;;;;20.33;14.05;;;;;;;21.77;80.63;99149.25;5012197;28;20042;-73
2023/06/14 06:46:48;;;;;;;31.27;13.80;;;;;;;22.05;79.88;99155.88;5011095;28;20026;-73
2023/06/14 06:49:14;;;;;;;18.05;12.75;;;;;;;22.03;79.28;99153.47;5011803;28;20018;-73
2023/06/14 06:51:45;;;;;;;19.23;13.18;;;;;;;22.12;77.82;99153.78;5009833;28;20030;-73
2023/06/14 06:54:11;;;;;;;16.55;12.73;;;;;;;22.69;77.64;99154.41;5008376;28;20064;-73
2023/06/14 06:56:36;;;;;;;15.40;12.38;;;;;;;22.54;74.21;99148.06;5010859;28;20068;-73
2023/06/14 06:59:03;;;;;;;13.93;12.32;;;;;;;22.31;74.42;99148.72;5012301;28;20058;-73
2023/06/14 07:01:28;;;;;;;18.27;12.02;;;;;;;22.76;74.85;99153.50;5010374;28;20044;-73
2023/06/14 07:03:55;;;;;;;102.07;76.05;;;;;;;22.93;71.65;99163.06;5004210;28;20416;-73
2023/06/14 07:06:21;;;;;;;22.00;17.20;;;;;;;23.12;73.10;99157.94;5009427;28;20507;-71
2023/06/14 07:08:48;;;;;;;76.25;41.42;;;;;;;23.02;72.11;99158.91;5011180;28;20026;-72
2023/06/14 07:11:14;;;;;;;24.55;16.52;;;;;;;23.36;71.85;99147.41;5007283;28;20041;-73
2023/06/14 07:13:39;;;;;;;15.98;12.05;;;;;;;23.44;70.68;99155.88;5006061;28;20034;-74
2023/06/14 07:16:05;;;;;;;15.05;13.32;;;;;;;23.46;69.88;99145.63;5007439;28;20038;-74
2023/06/14 07:18:31;;;;;;;26.48;14.27;;;;;;;23.42;70.27;99151.41;5007220;28;20034;-74
2023/06/14 07:20:56;;;;;;;13.90;12.40;;;;;;;23.50;68.77;99148.44;5002412;28;20048;-74
2023/06/14 07:23:22;;;;;;;14.25;12.75;;;;;;;23.47;68.01;99158.69;5001119;28;20038;-75
2023/06/14 07:25:48;;;;;;;29.45;17.90;;;;;;;23.32;66.14;99149.53;4999621;28;20034;-74
2023/06/14 07:28:14;;;;;;;35.80;24.13;;;;;;;23.17;68.74;99143.19;4997368;28;20499;-74
2023/06/14 07:30:39;;;;;;;18.40;14.75;;;;;;;23.32;69.42;99143.81;5003257;28;20030;-75
2023/06/14 07:33:05;;;;;;;17.25;13.60;;;;;;;23.36;68.98;99135.22;5000188;28;20025;-74
2023/06/14 07:35:31;;;;;;;15.65;13.57;;;;;;;23.70;67.87;99143.63;5008492;28;20060;-73
2023/06/14 07:37:57;;;;;;;29.13;16.60;;;;;;;22.84;71.14;99152.19;5005835;28;20045;-73
2023/06/14 07:40:22;;;;;;;44.40;23.20;;;;;;;22.79;72.02;99151.84;5010173;28;20037;-73
2023/06/14 07:42:50;;;;;;;37.72;15.10;;;;;;;22.92;71.78;99150.06;5011359;28;20148;-76
2023/06/14 07:45:16;;;;;;;18.80;13.73;;;;;;;22.64;70.70;99154.91;5004791;28;20026;-72
2023/06/14 07:47:41;;;;;;;18.73;14.18;;;;;;;22.27;72.08;99143.06;5002571;28;20093;-75
2023/06/14 07:50:07;;;;;;;19.38;14.38;;;;;;;22.92;70.81;99150.06;5000838;28;20109;-75
2023/06/14 07:52:33;;;;;;;16.73;11.80;;;;;;;23.16;69.92;99150.13;4999380;28;20026;-75
2023/06/14 07:54:58;;;;;;;19.73;12.02;;;;;;;23.33;68.92;99148.28;5009235;28;20497;-75
2023/06/14 07:57:24;;;;;;;16.23;12.05;;;;;;;23.86;66.80;99139.28;5002327;28;20413;-75
2023/06/14 07:59:50;;;;;;;17.42;12.88;;;;;;;24.24;66.13;99146.81;5016623;28;20038;-77
2023/06/14 08:02:15;;;;;;;17.75;10.43;;;;;;;24.40;64.24;99146.09;5006640;28;20117;-76
2023/06/14 08:04:42;;;;;;;11.93;9.82;;;;;;;24.52;61.67;99154.03;5008009;28;20045;-77
2023/06/14 08:07:07;;;;;;;13.90;11.82;;;;;;;24.39;62.57;99155.91;4991642;28;20030;-76
2023/06/14 08:09:33;;;;;;;13.18;11.50;;;;;;;24.57;61.38;99157.59;4990440;28;20460;-76
2023/06/14 08:11:58;;;;;;;16.17;11.27;;;;;;;24.82;62.49;99157.13;4991742;28;20489;-77
2023/06/14 08:14:24;;;;;;;17.83;12.80;;;;;;;24.99;63.33;99160.84;4998156;28;20037;-77
2023/06/14 08:16:49;;;;;;;14.45;11.70;;;;;;;24.81;64.07;99170.59;5014429;28;20034;-77
2023/06/14 08:19:16;;;;;;;17.90;12.13;;;;;;;25.05;64.10;99169.72;5015355;28;20113;-75
2023/06/14 08:21:43;;;;;;;17.38;11.35;;;;;;;25.06;62.77;99168.47;5014063;28;20495;-75
2023/06/14 08:24:12;;;;;;;14.60;12.23;;;;;;;24.72;62.65;99172.41;5015402;28;20095;-76
2023/06/14 08:26:38;;;;;;;14.52;13.02;;;;;;;24.63;63.65;99179.53;5013714;28;20029;-75
2023/06/14 08:29:03;;;;;;;19.40;15.68;;;;;;;24.19;65.16;99179.53;5015191;28;20022;-75
2023/06/14 08:31:29;;;;;;;13.30;11.90;;;;;;;23.92;66.99;99183.25;5012840;28;20469;-75
2023/06/14 08:33:54;;;;;;;32.08;12.68;;;;;;;23.96;66.62;99183.19;5013988;28;20466;-75
2023/06/14 08:36:20;;;;;;;13.63;11.95;;;;;;;23.92;66.87;99182.41;5014922;28;20635;-74
2023/06/14 08:38:45;;;;;;;14.38;12.82;;;;;;;24.15;66.64;99187.38;5013152;28;20053;-74
2023/06/14 08:41:13;;;;;;;14.43;12.30;;;;;;;24.09;66.77;99189.91;5011448;28;20034;-74
2023/06/14 08:43:39;;;;;;;20.00;13.57;;;;;;;23.96;67.43;99178.28;5013994;28;20038;-74
2023/06/14 08:46:08;;;;;;;17.67;13.23;;;;;;;24.24;66.03;99183.94;5013877;28;20042;-74
2023/06/14 08:48:34;;;;;;;17.60;12.93;;;;;;;24.31;65.05;99183.00;5014414;28;20022;-76
2023/06/14 08:51:03;;;;;;;21.52;14.23;;;;;;;24.14;64.88;99185.75;5013378;28;20061;-76
2023/06/14 08:53:33;;;;;;;23.80;15.30;;;;;;;24.01;66.19;99184.72;5012647;28;20052;-76
2023/06/14 08:56:04;;;;;;;14.65;12.40;;;;;;;24.17;66.81;99187.75;5010931;28;20627;-76
2023/06/14 08:58:34;;;;;;;24.20;14.23;;;;;;;24.36;65.83;99171.06;5012505;28;20057;-76
2023/06/14 09:01:01;;;;;;;22.15;15.00;;;;;;;24.17;64.96;99181.19;5010188;28;20025;-76
2023/06/14 09:03:29;;;;;;;14.68;12.10;;;;;;;24.10;65.43;99170.72;5012363;28;20672;-76
2023/06/14 09:05:56;;;;;;;15.68;11.85;;;;;;;24.51;64.87;99181.00;5008566;28;20101;-76
2023/06/14 09:08:23;;;;;;;22.00;12.23;;;;;;;24.58;63.38;99173.50;5009102;28;20034;-77
2023/06/14 09:10:48;;;;;;;26.20;17.15;;;;;;;25.13;62.65;99161.78;5015772;28;20402;-76
2023/06/14 09:13:14;;;;;;;15.10;11.45;;;;;;;25.43;62.78;99172.13;5014151;28;20124;-76
2023/06/14 09:15:39;;;;;;;20.45;13.20;;;;;;;25.44;61.72;99170.88;5012287;28;20032;-79
2023/06/14 09:18:06;;;;;;;15.02;11.60;;;;;;;25.85;59.91;99167.88;5005243;28;20125;-78
2023/06/14 09:20:32;;;;;;;14.75;12.70;;;;;;;25.77;59.08;99168.06;5010985;28;20036;-75
2023/06/14 09:22:58;;;;;;;13.57;11.13;;;;;;;25.79;57.53;99167.59;5010419;28;20037;-74
2023/06/14 09:25:24;;;;;;;15.48;12.32;;;;;;;25.89;57.62;99163.69;5010534;28;20515;-73
2023/06/14 09:27:51;;;;;;;12.93;11.63;;;;;;;25.89;59.49;99165.75;5009210;28;20045;-75
2023/06/14 09:30:20;;;;;;;15.02;11.95;;;;;;;25.84;58.03;99169.97;5008178;28;20120;-77
2023/06/14 09:32:46;;;;;;;10.98;9.88;;;;;;;25.95;58.24;99166.00;5011491;28;20038;-75
2023/06/14 09:35:11;;;;;;;11.02;9.85;;;;;;;25.81;59.17;99159.38;5010073;28;20049;-77
2023/06/14 09:37:40;;;;;;;15.18;11.43;;;;;;;26.16;59.02;99162.56;5007806;28;20073;-76
2023/06/14 09:40:07;;;;;;;23.42;14.68;;;;;;;25.81;60.85;99158.59;5009823;28;20125;-75
2023/06/14 09:42:35;;;;;;;21.80;13.98;;;;;;;25.88;58.08;99159.19;5010421;28;20054;-75
2023/06/14 09:45:03;;;;;;;14.93;11.07;;;;;;;25.82;57.63;99160.19;5009812;28;20440;-73
2023/06/14 09:47:28;;;;;;;13.00;10.50;;;;;;;25.97;57.87;99161.44;5008802;28;20484;-73
2023/06/14 09:49:55;;;;;;;13.43;11.82;;;;;;;25.92;57.48;99150.53;5008966;28;20068;-73
2023/06/14 09:52:21;;;;;;;14.13;11.60;;;;;;;25.83;57.85;99153.22;5009499;28;20068;-76
2023/06/14 09:54:51;;;;;;;13.32;10.90;;;;;;;25.56;58.40;99157.94;5009152;28;20041;-75
2023/06/14 09:57:21;;;;;;;12.48;11.07;;;;;;;25.40;58.48;99147.25;5012466;28;20025;-75
2023/06/14 09:59:48;;;;;;;17.00;11.30;;;;;;;25.59;57.91;99157.06;5009878;28;20029;-74
2023/06/14 10:02:32;;;;;;;15.80;11.52;;;;;;;25.81;57.91;99150.78;5025968;28;20034;-75
2023/06/14 10:05:06;;;;;;;11.98;10.80;;;;;;;26.38;57.90;99141.94;5007666;28;20133;-77
2023/06/14 10:07:40;;;;;;;11.18;10.18;;;;;;;26.76;55.94;99149.88;5006074;28;20033;-76
2023/06/14 10:10:06;;;;;;;14.07;10.02;;;;;;;27.02;56.38;99143.44;5008138;28;20034;-78
2023/06/14 10:12:33;;;;;;;14.98;10.07;;;;;;;27.03;54.15;99140.13;5008004;28;20044;-77
2023/06/14 10:14:59;;;;;;;12.63;9.77;;;;;;;27.52;54.29;99138.19;5008030;28;20041;-80
2023/06/14 10:17:48;;;;;;;14.02;10.52;;;;;;;27.56;52.65;99132.31;5007272;28;20025;-78
2023/06/14 10:20:37;;;;;;;11.57;10.37;;;;;;;27.54;51.11;99138.56;4995870;28;20042;-78
2023/06/14 10:23:24;;;;;;;14.77;9.73;;;;;;;27.16;51.64;99130.72;5002768;28;20425;-80
2023/06/14 10:26:00;;;;;;;11.75;10.55;;;;;;;27.06;53.11;99129.75;5017323;28;20069;-80
2023/06/14 10:28:26;;;;;;;9.55;8.68;;;;;;;27.39;54.49;99125.88;4998202;28;20400;-80
2023/06/14 10:31:13;;;;;;;12.57;9.32;;;;;;;27.66;51.82;99125.44;4998124;28;20030;-79
2023/06/14 10:33:56;;;;;;;11.45;10.30;;;;;;;27.21;54.12;99126.44;4996881;28;20046;-79
2023/06/14 10:36:22;;;;;;;11.15;10.00;;;;;;;26.93;54.26;99131.81;5002038;28;20061;-80
2023/06/14 10:39:06;;;;;;;11.50;10.00;;;;;;;26.98;54.75;99128.41;5003908;28;20107;-80
2023/06/14 10:41:35;;;;;;;10.45;9.52;;;;;;;26.51;55.04;99124.81;4998513;28;20033;-79
2023/06/14 10:44:13;;;;;;;17.55;9.52;;;;;;;26.61;55.35;99120.84;4997994;28;20030;-78
2023/06/14 10:47:02;;;;;;;11.63;9.95;;;;;;;26.61;55.01;99117.16;5002554;28;20456;-79
2023/06/14 10:49:50;;;;;;;12.73;11.10;;;;;;;26.27;55.82;99112.78;4995324;28;20496;-79
2023/06/14 10:52:18;;;;;;;11.15;10.05;;;;;;;26.18;56.64;99119.97;4998197;28;20058;-79
2023/06/14 10:55:00;;;;;;;12.27;10.10;;;;;;;26.91;55.22;99115.06;4999717;28;20092;-80
2023/06/14 10:57:25;;;;;;;11.90;9.43;;;;;;;27.39;53.10;99103.72;4994214;28;20405;-80
2023/06/14 10:59:51;;;;;;;12.77;8.90;;;;;;;27.41;50.81;99089.69;5004158;28;20022;-80
2023/06/14 11:02:32;;;;;;;9.45;8.63;;;;;;;27.55;51.52;99102.81;4996835;28;20512;-80
2023/06/14 11:05:05;;;;;;;9.27;8.35;;;;;;;27.87;52.87;99095.19;4996802;28;20404;-79
2023/06/14 11:07:30;;;;;;;14.82;9.10;;;;;;;28.32;50.97;99091.59;4997707;28;20030;-79
2023/06/14 11:10:23;;;;;;;9.98;8.98;;;;;;;28.66;50.01;99093.59;4996210;28;20437;-79
2023/06/14 11:12:52;;;;;;;10.07;8.07;;;;;;;28.08;50.13;99095.66;4997109;28;20477;-79
2023/06/14 11:15:17;;;;;;;11.90;8.27;;;;;;;28.13;50.06;99085.66;5004731;28;20037;-78
2023/06/14 11:17:56;;;;;;;11.18;9.38;;;;;;;27.69;50.12;99080.63;4995381;28;20034;-78
2023/06/14 11:20:25;;;;;;;9.88;8.90;;;;;;;27.79;50.41;99079.44;4997675;28;20378;-79
2023/06/14 11:22:51;;;;;;;;;;;;;;;27.95;50.64;99081.38;4997339;28;20047;-79